Time;durP1;ratioP1;P1;durP2;ratioP2;P2;SDS_P1;SDS_P2;PMS_P1;PMS_P2;Temp;Humidity;BMP_temperature;BMP_pressure;BME280_temperature;BME280_humidity;BME280_pressure;Samples;Min_cycle;Max_cycle;Signal;HPM_P1;HPM_P2
2021/12/03 00:01:08;;;;;;;13.40;8.37;;;-0.70;99.90;;;;;;4998669;28;20179;-78
2021/12/03 00:03:35;;;;;;;11.83;7.80;;;-0.60;99.90;;;;;;5000577;28;20204;-77
2021/12/03 00:06:01;;;;;;;12.00;8.33;;;-0.70;99.90;;;;;;4997918;28;20258;-77
2021/12/03 00:08:27;;;;;;;11.63;8.00;;;-0.70;99.90;;;;;;4997453;28;20255;-77
2021/12/03 00:10:58;;;;;;;12.47;9.40;;;-0.70;99.90;;;;;;4997132;28;20198;-77
2021/12/03 00:13:26;;;;;;;9.53;7.23;;;-0.70;99.90;;;;;;4997754;28;20202;-77
2021/12/03 00:15:54;;;;;;;10.73;7.77;;;-0.70;99.90;;;;;;4997318;28;20242;-77
2021/12/03 00:18:19;;;;;;;12.43;7.73;;;-0.80;99.90;;;;;;4995755;28;20173;-77
2021/12/03 00:20:45;;;;;;;8.50;7.53;;;-0.80;99.90;;;;;;4995856;28;20221;-77
2021/12/03 00:23:12;;;;;;;12.73;8.70;;;-0.80;99.90;;;;;;4996631;28;20235;-77
2021/12/03 00:25:38;;;;;;;18.73;8.90;;;-0.80;99.90;;;;;;4997303;28;20191;-76
2021/12/03 00:28:04;;;;;;;12.97;9.00;;;-0.80;99.90;;;;;;4997737;28;20186;-77
2021/12/03 00:30:32;;;;;;;14.70;9.33;;;-0.80;99.90;;;;;;4999071;28;20186;-76
2021/12/03 00:32:58;;;;;;;11.17;9.37;;;-0.80;99.90;;;;;;4998836;28;20194;-78
2021/12/03 00:35:24;;;;;;;12.63;9.40;;;-0.70;99.90;;;;;;4998555;28;20578;-78
2021/12/03 00:37:50;;;;;;;16.30;11.50;;;-0.70;99.90;;;;;;4997478;28;20259;-77
2021/12/03 00:40:22;;;;;;;14.47;10.87;;;-0.70;99.90;;;;;;4994416;28;20179;-77
2021/12/03 00:42:48;;;;;;;13.67;11.47;;;-0.70;99.90;;;;;;4996227;28;20188;-75
2021/12/03 00:45:14;;;;;;;15.43;11.30;;;-0.70;99.90;;;;;;4994787;28;20547;-77
2021/12/03 00:47:41;;;;;;;16.63;13.17;;;-0.70;99.90;;;;;;4996322;28;20173;-77
2021/12/03 00:50:11;;;;;;;17.07;12.73;;;-0.60;99.90;;;;;;4994736;28;20184;-77
2021/12/03 00:52:37;;;;;;;14.47;12.00;;;-0.60;99.90;;;;;;4995569;28;20567;-76
2021/12/03 00:55:04;;;;;;;14.43;12.70;;;-0.60;99.90;;;;;;4996684;28;20191;-77
2021/12/03 00:57:30;;;;;;;15.43;12.10;;;-0.60;99.90;;;;;;4995284;28;20651;-77
2021/12/03 00:59:56;;;;;;;16.17;12.50;;;-0.60;99.90;;;;;;4996435;28;20185;-77
2021/12/03 01:02:21;;;;;;;15.50;13.17;;;-0.60;99.90;;;;;;4996028;28;20224;-77
2021/12/03 01:04:47;;;;;;;22.63;13.13;;;-0.60;99.90;;;;;;4996613;28;20200;-77
2021/12/03 01:07:14;;;;;;;16.67;12.33;;;-0.60;99.90;;;;;;4998212;28;20212;-77
2021/12/03 01:09:41;;;;;;;17.57;13.87;;;-0.60;99.90;;;;;;4996108;28;20654;-77
2021/12/03 01:12:07;;;;;;;19.23;14.87;;;-0.60;99.90;;;;;;4995411;28;20210;-77
2021/12/03 01:14:33;;;;;;;18.60;14.23;;;-0.60;99.90;;;;;;4995594;28;20829;-77
2021/12/03 01:16:58;;;;;;;19.07;14.70;;;-0.60;99.90;;;;;;4993935;28;20172;-77
2021/12/03 01:19:24;;;;;;;18.33;14.43;;;-0.60;99.90;;;;;;4995364;28;20602;-77
2021/12/03 01:21:50;;;;;;;23.80;15.17;;;-0.60;99.90;;;;;;4995456;28;20226;-77
2021/12/03 01:24:15;;;;;;;25.60;16.50;;;-0.50;99.90;;;;;;4994263;28;20672;-78
2021/12/03 01:26:43;;;;;;;26.37;16.43;;;-0.50;99.90;;;;;;4995536;28;20583;-77
2021/12/03 01:29:09;;;;;;;26.77;18.00;;;-0.40;99.90;;;;;;4993830;28;20222;-77
2021/12/03 01:31:34;;;;;;;25.63;17.90;;;-0.40;99.90;;;;;;4995236;28;20171;-77
2021/12/03 01:34:00;;;;;;;26.77;18.80;;;-0.40;99.90;;;;;;4995495;28;20181;-77
2021/12/03 01:36:26;;;;;;;27.77;20.27;;;-0.30;99.90;;;;;;4995175;28;20212;-77
2021/12/03 01:38:51;;;;;;;27.90;19.10;;;-0.30;99.90;;;;;;4995874;28;20177;-77
2021/12/03 01:41:17;;;;;;;29.70;21.07;;;-0.20;99.90;;;;;;4995885;28;20546;-77
2021/12/03 01:43:44;;;;;;;29.43;21.83;;;-0.20;99.90;;;;;;4995886;28;20642;-77
2021/12/03 01:46:11;;;;;;;32.27;21.70;;;-0.20;99.90;;;;;;4995966;28;20187;-76
2021/12/03 01:48:38;;;;;;;32.77;22.83;;;-0.10;99.90;;;;;;4996314;28;20185;-76
2021/12/03 01:51:05;;;;;;;39.67;24.60;;;-0.10;99.90;;;;;;4996350;28;20229;-77
2021/12/03 01:53:34;;;;;;;34.77;24.57;;;0.00;99.90;;;;;;5000129;28;20254;-77
2021/12/03 01:56:06;;;;;;;36.90;25.83;;;0.00;99.90;;;;;;4999758;28;20185;-77
2021/12/03 01:58:32;;;;;;;37.57;26.57;;;0.10;99.90;;;;;;4999884;28;20173;-77
2021/12/03 02:01:01;;;;;;;46.93;26.93;;;0.10;99.90;;;;;;4999069;28;20180;-77
2021/12/03 02:03:31;;;;;;;43.07;27.17;;;0.20;99.90;;;;;;5000325;28;20184;-77
2021/12/03 02:05:57;;;;;;;40.30;24.50;;;0.20;99.90;;;;;;5000009;28;20227;-77
2021/12/03 02:08:25;;;;;;;46.50;28.70;;;0.30;99.90;;;;;;4998887;28;20232;-77
2021/12/03 02:10:52;;;;;;;47.37;29.10;;;0.30;99.90;;;;;;5000658;28;20204;-76
2021/12/03 02:13:19;;;;;;;47.60;27.70;;;0.40;99.90;;;;;;5000479;28;20204;-77
2021/12/03 02:15:45;;;;;;;51.53;29.03;;;0.40;99.90;;;;;;5000157;28;20221;-77
2021/12/03 02:18:12;;;;;;;45.50;29.10;;;0.50;99.90;;;;;;4999723;28;20193;-78
2021/12/03 02:20:48;;;;;;;50.27;30.00;;;0.50;99.90;;;;;;5000728;28;20170;-76
2021/12/03 02:23:14;;;;;;;44.00;28.13;;;0.50;99.90;;;;;;5000788;28;20631;-77
2021/12/03 02:25:41;;;;;;;49.87;28.60;;;0.60;99.90;;;;;;4999398;28;20193;-77
2021/12/03 02:28:07;;;;;;;54.63;29.93;;;0.60;99.90;;;;;;5001257;28;20188;-77
2021/12/03 02:30:33;;;;;;;45.53;30.67;;;0.60;99.90;;;;;;4999419;28;20181;-77
2021/12/03 02:32:58;;;;;;;48.17;29.33;;;0.70;99.90;;;;;;5001458;28;20247;-77
2021/12/03 02:35:24;;;;;;;49.97;30.97;;;0.70;99.90;;;;;;5001640;28;20209;-77
2021/12/03 02:37:50;;;;;;;53.40;31.70;;;0.70;99.90;;;;;;5002306;28;20174;-77
2021/12/03 02:40:18;;;;;;;59.20;30.77;;;0.80;99.90;;;;;;5003797;28;20170;-77
2021/12/03 02:42:44;;;;;;;53.73;31.67;;;0.80;99.90;;;;;;5002344;28;20178;-77
2021/12/03 02:45:12;;;;;;;51.87;29.67;;;0.90;99.90;;;;;;5003586;28;20272;-77
2021/12/03 02:47:38;;;;;;;48.20;30.97;;;0.90;99.90;;;;;;4999183;28;20180;-76
2021/12/03 02:50:05;;;;;;;57.80;30.00;;;1.00;99.90;;;;;;4997960;28;20182;-77
2021/12/03 02:52:31;;;;;;;51.63;30.80;;;1.00;99.90;;;;;;4999539;28;20201;-77
2021/12/03 02:54:57;;;;;;;53.93;31.40;;;1.00;99.90;;;;;;4999486;28;20276;-77
2021/12/03 02:57:23;;;;;;;60.37;31.10;;;1.00;99.90;;;;;;4997565;28;20626;-77
2021/12/03 02:59:48;;;;;;;58.10;31.07;;;1.00;99.90;;;;;;4997343;28;20188;-77
2021/12/03 03:02:14;;;;;;;52.10;31.13;;;1.10;99.90;;;;;;4999533;28;20184;-77
2021/12/03 03:04:40;;;;;;;60.90;30.90;;;1.10;99.90;;;;;;4999234;28;20203;-77
2021/12/03 03:07:05;;;;;;;55.10;29.70;;;1.10;99.90;;;;;;4998146;28;20174;-77
2021/12/03 03:09:31;;;;;;;50.53;30.97;;;1.10;99.90;;;;;;4998823;28;20227;-77
2021/12/03 03:11:58;;;;;;;47.97;29.03;;;1.10;99.90;;;;;;4997740;28;20232;-77
2021/12/03 03:14:24;;;;;;;56.20;29.20;;;1.20;99.90;;;;;;4999324;28;20181;-77
2021/12/03 03:16:51;;;;;;;54.83;28.47;;;1.20;99.90;;;;;;4997499;28;20206;-77
2021/12/03 03:19:20;;;;;;;52.53;29.07;;;1.20;99.90;;;;;;4998708;28;20174;-77
2021/12/03 03:21:47;;;;;;;56.00;28.13;;;1.30;99.90;;;;;;4998436;28;20181;-77
2021/12/03 03:24:14;;;;;;;59.37;29.50;;;1.30;99.90;;;;;;4998573;28;20173;-77
2021/12/03 03:26:41;;;;;;;58.57;29.60;;;1.30;99.90;;;;;;4997576;28;20173;-76
2021/12/03 03:29:09;;;;;;;50.87;27.17;;;1.40;99.90;;;;;;4998239;28;20169;-76
2021/12/03 03:31:37;;;;;;;55.27;28.23;;;1.40;99.90;;;;;;4998881;28;20178;-77
2021/12/03 03:34:04;;;;;;;53.83;27.40;;;1.40;99.90;;;;;;4999132;28;20182;-77
2021/12/03 03:36:38;;;;;;;56.50;28.43;;;1.40;99.90;;;;;;4995789;28;20575;-77
2021/12/03 03:39:10;;;;;;;56.53;28.33;;;1.40;99.90;;;;;;4995752;28;20192;-77
2021/12/03 03:41:36;;;;;;;58.33;29.17;;;1.40;99.90;;;;;;4996794;28;20165;-77
2021/12/03 03:44:03;;;;;;;62.37;28.93;;;1.40;99.90;;;;;;4995184;28;20625;-77
2021/12/03 03:46:28;;;;;;;53.80;27.43;;;1.50;99.90;;;;;;4996488;28;20198;-77
2021/12/03 03:48:54;;;;;;;56.60;28.87;;;1.50;99.90;;;;;;4996528;28;20187;-77
2021/12/03 03:51:19;;;;;;;51.67;27.13;;;1.50;99.90;;;;;;4996272;28;20174;-77
2021/12/03 03:53:45;;;;;;;54.27;28.33;;;1.50;99.90;;;;;;4994589;28;20256;-77
2021/12/03 03:56:11;;;;;;;60.80;28.27;;;1.50;99.90;;;;;;4994362;28;20220;-77
2021/12/03 03:58:38;;;;;;;54.80;28.20;;;1.60;99.90;;;;;;4995610;28;20177;-77
2021/12/03 04:01:05;;;;;;;56.13;27.60;;;1.60;99.90;;;;;;4994342;28;20204;-77
2021/12/03 04:03:31;;;;;;;49.83;26.90;;;1.60;99.90;;;;;;4994073;28;20182;-76
2021/12/03 04:05:58;;;;;;;51.90;27.47;;;1.60;99.90;;;;;;4993949;28;20197;-77
2021/12/03 04:08:24;;;;;;;54.03;27.30;;;1.70;99.90;;;;;;4995270;28;20185;-76
2021/12/03 04:10:50;;;;;;;54.00;27.83;;;1.60;99.90;;;;;;4994976;28;20181;-77
2021/12/03 04:13:15;;;;;;;44.57;24.87;;;1.60;99.90;;;;;;4994776;28;20205;-77
2021/12/03 04:15:42;;;;;;;46.23;26.00;;;1.60;99.90;;;;;;4992467;28;20205;-76
2021/12/03 04:18:09;;;;;;;47.20;24.30;;;1.70;99.90;;;;;;4994696;28;20184;-76
2021/12/03 04:20:36;;;;;;;46.93;25.57;;;1.70;99.90;;;;;;4993396;28;20174;-77
2021/12/03 04:23:01;;;;;;;43.43;23.93;;;1.70;99.90;;;;;;4993547;28;20196;-76
2021/12/03 04:25:27;;;;;;;52.27;24.37;;;1.70;99.90;;;;;;4994528;28;20201;-77
2021/12/03 04:27:53;;;;;;;44.67;24.23;;;1.70;99.90;;;;;;4995750;28;20188;-77
2021/12/03 04:30:24;;;;;;;46.60;23.70;;;1.70;99.90;;;;;;4996189;28;20181;-77
2021/12/03 04:32:52;;;;;;;43.33;24.00;;;1.70;99.90;;;;;;4995724;28;20197;-77
2021/12/03 04:35:17;;;;;;;41.93;22.47;;;1.80;99.90;;;;;;5024570;23;20227;-79
2021/12/03 04:37:43;;;;;;;45.77;23.00;;;1.80;99.90;;;;;;5034504;28;20180;-79
2021/12/03 04:40:12;;;;;;;39.53;21.30;;;1.80;99.90;;;;;;5035994;28;20592;-79
2021/12/03 04:42:38;;;;;;;37.07;22.73;;;1.80;99.90;;;;;;5035732;28;20520;-78
2021/12/03 04:45:09;;;;;;;47.43;23.03;;;1.90;99.90;;;;;;5035631;28;20544;-79
2021/12/03 04:47:35;;;;;;;44.83;22.80;;;1.80;99.90;;;;;;5034471;28;20188;-79
2021/12/03 04:50:03;;;;;;;38.60;22.87;;;1.80;99.90;;;;;;5034352;28;20262;-79
2021/12/03 04:52:28;;;;;;;46.50;23.73;;;1.80;99.90;;;;;;5034569;28;20255;-79
2021/12/03 04:54:54;;;;;;;40.00;23.73;;;1.90;99.90;;;;;;5033849;28;20650;-79
2021/12/03 04:57:20;;;;;;;45.03;24.10;;;1.80;99.90;;;;;;5035248;28;20661;-79
2021/12/03 04:59:45;;;;;;;39.90;22.57;;;1.90;99.90;;;;;;5034986;28;20179;-79
2021/12/03 05:02:11;;;;;;;45.70;22.90;;;1.90;99.90;;;;;;5034309;28;20731;-79
2021/12/03 05:04:38;;;;;;;37.47;21.70;;;1.90;99.90;;;;;;5035286;28;20214;-79
2021/12/03 05:09:36;;;;;;;37.77;21.43;;;2.00;99.90;;;;;;5036122;28;20666;-78
2021/12/03 05:12:03;;;;;;;42.67;21.87;;;2.00;99.90;;;;;;5033979;28;20204;-79
2021/12/03 05:14:29;;;;;;;38.10;21.47;;;2.00;99.90;;;;;;5035504;28;20696;-79
2021/12/03 05:16:55;;;;;;;42.13;22.33;;;2.00;99.90;;;;;;5033528;28;20278;-79
2021/12/03 05:19:21;;;;;;;35.77;21.00;;;2.00;99.90;;;;;;5035558;28;20241;-79
2021/12/03 05:21:47;;;;;;;38.40;20.83;;;2.00;99.90;;;;;;5035055;28;20613;-79
2021/12/03 05:24:13;;;;;;;35.70;19.57;;;2.00;99.90;;;;;;5033939;28;20169;-79
2021/12/03 05:26:40;;;;;;;35.23;20.23;;;2.00;99.90;;;;;;5034471;28;20189;-79
2021/12/03 05:29:07;;;;;;;36.57;19.40;;;2.00;99.90;;;;;;5035108;28;20168;-79
2021/12/03 05:31:34;;;;;;;31.07;18.27;;;2.10;99.90;;;;;;5034135;28;20506;-79
2021/12/03 05:34:02;;;;;;;34.13;18.20;;;2.10;99.90;;;;;;5034762;28;20287;-79
2021/12/03 05:36:28;;;;;;;30.17;18.17;;;2.10;99.90;;;;;;5034734;28;20207;-79
2021/12/03 05:38:53;;;;;;;28.80;18.70;;;2.10;99.90;;;;;;5035254;28;20202;-79
2021/12/03 05:41:19;;;;;;;34.13;19.53;;;2.10;99.90;;;;;;5035234;28;20233;-80
2021/12/03 05:43:45;;;;;;;36.00;19.67;;;2.10;99.90;;;;;;5034232;28;20176;-79
2021/12/03 05:46:10;;;;;;;40.07;20.63;;;2.10;99.90;;;;;;5034330;28;20192;-79
2021/12/03 05:48:36;;;;;;;32.87;19.77;;;2.20;99.90;;;;;;5034796;28;20180;-79
2021/12/03 05:51:01;;;;;;;37.50;20.07;;;2.20;99.90;;;;;;5034447;28;20649;-79
2021/12/03 05:53:27;;;;;;;33.03;18.60;;;2.20;99.90;;;;;;5033722;28;20234;-78
2021/12/03 05:55:52;;;;;;;34.93;19.03;;;2.20;99.90;;;;;;5032909;28;20218;-77
2021/12/03 05:58:18;;;;;;;41.53;19.50;;;2.20;99.90;;;;;;5031449;28;20225;-78
2021/12/03 06:00:44;;;;;;;44.27;20.77;;;2.30;99.90;;;;;;5031596;28;20597;-78
2021/12/03 06:03:11;;;;;;;38.60;19.17;;;2.30;99.90;;;;;;5032180;28;20184;-78
2021/12/03 06:05:39;;;;;;;41.47;20.60;;;2.30;99.90;;;;;;5031694;28;20634;-78
2021/12/03 06:08:05;;;;;;;42.07;20.33;;;2.30;99.90;;;;;;5032463;28;20587;-78
2021/12/03 06:10:31;;;;;;;36.40;20.30;;;2.30;99.90;;;;;;5033079;28;20176;-78
2021/12/03 06:12:57;;;;;;;39.53;20.53;;;2.30;99.90;;;;;;5032994;28;20204;-78
2021/12/03 06:15:23;;;;;;;39.13;20.40;;;2.30;99.90;;;;;;5032556;28;20575;-78
2021/12/03 06:17:49;;;;;;;36.63;20.87;;;2.30;99.90;;;;;;5032911;28;20195;-78
2021/12/03 06:20:16;;;;;;;37.20;19.57;;;2.30;99.90;;;;;;5033049;28;20172;-77
2021/12/03 06:22:42;;;;;;;37.97;20.17;;;2.40;99.90;;;;;;5032811;28;20255;-78
2021/12/03 06:25:10;;;;;;;39.10;20.20;;;2.40;99.90;;;;;;5029468;28;20208;-77
2021/12/03 06:27:38;;;;;;;38.13;19.57;;;2.40;99.90;;;;;;5032837;28;20195;-78
2021/12/03 06:30:07;;;;;;;38.80;21.43;;;2.40;99.90;;;;;;5030778;28;20186;-78
2021/12/03 06:32:33;;;;;;;38.20;20.07;;;2.50;99.90;;;;;;5028902;28;20206;-77
2021/12/03 06:34:58;;;;;;;37.90;20.13;;;2.50;99.90;;;;;;5030572;28;20268;-78
2021/12/03 06:37:24;;;;;;;39.33;20.40;;;2.50;99.90;;;;;;5031089;28;20223;-78
2021/12/03 06:39:49;;;;;;;37.90;21.23;;;2.50;99.90;;;;;;5035671;28;20169;-78
2021/12/03 06:42:15;;;;;;;43.50;21.80;;;2.50;99.90;;;;;;5037035;28;20184;-79
2021/12/03 06:44:40;;;;;;;37.63;18.93;;;2.50;99.90;;;;;;5039374;28;20653;-78
2021/12/03 06:47:06;;;;;;;41.13;21.90;;;2.50;99.90;;;;;;5046233;28;20346;-78
2021/12/03 06:49:33;;;;;;;44.53;21.87;;;2.50;99.90;;;;;;5046215;28;20172;-78
2021/12/03 06:52:06;;;;;;;45.50;21.97;;;2.50;99.90;;;;;;5049163;28;20193;-79
2021/12/03 06:54:33;;;;;;;45.33;22.10;;;2.50;99.90;;;;;;5049208;28;20156;-78
2021/12/03 06:57:00;;;;;;;44.07;22.43;;;2.60;99.90;;;;;;5044404;28;20189;-78
2021/12/03 06:59:25;;;;;;;44.13;21.53;;;2.60;99.90;;;;;;5044438;28;20172;-78
2021/12/03 07:01:52;;;;;;;46.63;22.30;;;2.60;99.90;;;;;;5045127;28;20173;-79
2021/12/03 07:04:19;;;;;;;44.70;21.07;;;2.60;99.90;;;;;;5045983;28;20172;-78
2021/12/03 07:06:44;;;;;;;43.07;21.67;;;2.60;99.90;;;;;;5044542;28;20216;-78
2021/12/03 07:09:11;;;;;;;43.50;22.93;;;2.60;99.90;;;;;;5046759;28;20179;-78
2021/12/03 07:11:36;;;;;;;62.20;23.10;;;2.60;99.90;;;;;;5046515;28;20172;-78
2021/12/03 07:14:03;;;;;;;44.20;22.30;;;2.60;99.90;;;;;;5041750;28;20295;-78
2021/12/03 07:16:28;;;;;;;42.00;22.30;;;2.70;99.90;;;;;;5040118;28;20196;-79
2021/12/03 07:18:54;;;;;;;43.87;22.57;;;2.70;99.90;;;;;;5038223;28;20176;-79
2021/12/03 07:21:20;;;;;;;48.20;23.23;;;2.70;99.90;;;;;;5036822;28;20168;-78
2021/12/03 07:23:47;;;;;;;39.80;21.37;;;2.70;99.90;;;;;;5036817;28;20666;-79
2021/12/03 07:26:13;;;;;;;46.63;22.40;;;2.70;99.90;;;;;;5036777;28;20193;-80
2021/12/03 07:28:38;;;;;;;47.47;22.37;;;2.70;99.90;;;;;;5036626;28;20176;-79
2021/12/03 07:31:04;;;;;;;38.27;20.20;;;2.80;99.90;;;;;;5036826;28;20173;-79
2021/12/03 07:33:31;;;;;;;36.80;20.47;;;2.80;99.90;;;;;;5035560;28;20223;-78
2021/12/03 07:35:58;;;;;;;37.33;20.13;;;2.80;99.90;;;;;;5035124;28;20586;-79
2021/12/03 07:38:24;;;;;;;38.63;18.37;;;2.80;99.90;;;;;;5036220;28;20294;-79
2021/12/03 07:40:49;;;;;;;34.87;18.70;;;2.80;99.90;;;;;;5039502;28;20200;-78
2021/12/03 07:43:17;;;;;;;30.10;15.60;;;2.80;99.90;;;;;;5039132;28;20180;-79
2021/12/03 07:45:44;;;;;;;36.50;16.80;;;2.80;99.90;;;;;;5036498;28;20192;-77
2021/12/03 07:48:09;;;;;;;29.53;15.73;;;2.80;99.90;;;;;;5033840;28;20188;-79
2021/12/03 07:50:37;;;;;;;30.13;15.23;;;2.80;99.90;;;;;;5036105;28;20605;-79
2021/12/03 07:53:03;;;;;;;31.37;14.00;;;2.80;99.90;;;;;;5035664;28;20704;-78
2021/12/03 07:55:29;;;;;;;36.67;13.77;;;2.80;99.90;;;;;;5038599;28;20200;-78
2021/12/03 07:57:55;;;;;;;25.33;12.40;;;2.90;99.90;;;;;;5039316;28;20203;-79
2021/12/03 08:00:21;;;;;;;32.13;11.53;;;2.90;99.90;;;;;;5038212;28;20177;-79
2021/12/03 08:02:47;;;;;;;38.27;11.77;;;2.90;99.90;;;;;;5039283;28;20183;-78
2021/12/03 08:05:12;;;;;;;26.93;11.53;;;2.90;99.90;;;;;;5038496;28;20549;-79
2021/12/03 08:07:39;;;;;;;24.27;10.03;;;2.90;99.90;;;;;;5039475;28;20176;-78
2021/12/03 08:10:06;;;;;;;25.57;10.07;;;2.90;99.90;;;;;;5038310;28;20259;-78
2021/12/03 08:12:31;;;;;;;20.90;9.33;;;2.90;99.90;;;;;;5039168;28;20200;-78
2021/12/03 08:14:57;;;;;;;25.83;9.37;;;2.90;99.90;;;;;;5038396;28;20172;-79
2021/12/03 08:17:22;;;;;;;22.83;9.00;;;2.90;99.90;;;;;;5039450;28;20196;-78
2021/12/03 08:19:48;;;;;;;25.33;8.67;;;2.90;99.90;;;;;;5035498;28;20168;-79
2021/12/03 08:22:13;;;;;;;19.30;9.10;;;2.90;99.90;;;;;;5035854;28;20180;-79
2021/12/03 08:24:39;;;;;;;31.37;9.00;;;3.00;99.90;;;;;;5038396;28;20172;-79
2021/12/03 08:27:05;;;;;;;19.27;8.30;;;3.00;99.90;;;;;;5036656;28;20311;-78
2021/12/03 08:29:30;;;;;;;19.77;8.10;;;3.00;99.90;;;;;;5037551;28;20230;-79
2021/12/03 08:31:56;;;;;;;17.30;7.60;;;3.00;99.90;;;;;;5039549;28;20187;-78
2021/12/03 08:34:21;;;;;;;23.00;7.33;;;3.00;99.90;;;;;;5038956;28;20186;-79
2021/12/03 08:36:47;;;;;;;15.07;6.50;;;3.00;99.90;;;;;;5037671;28;20267;-78
2021/12/03 08:39:12;;;;;;;17.33;6.53;;;3.00;99.90;;;;;;5039300;28;20173;-78
2021/12/03 08:41:38;;;;;;;27.37;7.43;;;3.00;99.90;;;;;;5038310;28;20609;-79
2021/12/03 08:44:04;;;;;;;18.17;6.97;;;3.00;99.90;;;;;;5038843;28;20208;-79
2021/12/03 08:46:33;;;;;;;22.37;6.50;;;3.00;99.90;;;;;;5036819;28;20556;-79
2021/12/03 08:49:08;;;;;;;20.20;6.67;;;3.00;99.90;;;;;;5036622;28;20187;-79
2021/12/03 08:56:48;;;;;;;16.53;6.30;;;3.10;99.90;;;;;;5038233;28;20203;-79
2021/12/03 08:59:15;;;;;;;18.27;5.90;;;3.10;99.90;;;;;;5036185;28;20171;-79
2021/12/03 09:01:43;;;;;;;16.33;6.37;;;3.10;99.90;;;;;;5033358;28;20258;-78
2021/12/03 09:04:09;;;;;;;13.03;6.40;;;3.10;99.90;;;;;;5035511;28;20172;-79
2021/12/03 09:06:35;;;;;;;21.67;7.03;;;3.10;99.90;;;;;;5037686;28;20535;-79
2021/12/03 09:09:00;;;;;;;17.93;6.47;;;3.20;99.90;;;;;;5036341;28;20209;-79
2021/12/03 09:11:28;;;;;;;20.33;7.23;;;3.20;99.90;;;;;;5036294;28;20176;-78
2021/12/03 09:13:54;;;;;;;15.37;6.17;;;3.20;99.90;;;;;;5036571;28;20635;-79
2021/12/03 09:16:21;;;;;;;13.77;6.30;;;3.20;99.90;;;;;;5033135;28;20196;-79
2021/12/03 09:18:49;;;;;;;12.97;5.20;;;3.30;99.90;;;;;;5035304;28;20255;-79
2021/12/03 09:21:33;;;;;;;15.37;5.90;;;3.30;99.90;;;;;;5037423;28;20545;-79
2021/12/03 09:26:28;;;;;;;17.53;5.60;;;3.30;99.90;;;;;;5038066;28;20196;-78
2021/12/03 09:29:05;;;;;;;11.70;5.40;;;3.40;99.90;;;;;;5036268;28;20188;-79
2021/12/03 09:31:34;;;;;;;12.77;4.80;;;3.40;99.90;;;;;;5037558;28;20156;-78
2021/12/03 09:34:00;;;;;;;13.23;5.37;;;3.40;99.90;;;;;;5035993;28;20215;-78
2021/12/03 09:36:25;;;;;;;17.97;5.73;;;3.40;99.90;;;;;;5035162;28;20555;-79
2021/12/03 09:38:51;;;;;;;12.37;5.57;;;3.50;99.90;;;;;;5035855;28;20606;-79
2021/12/03 09:41:20;;;;;;;14.63;5.90;;;3.50;99.90;;;;;;5036182;28;20177;-79
2021/12/03 09:43:50;;;;;;;14.67;5.43;;;3.50;99.90;;;;;;5035695;28;20173;-78
2021/12/03 09:46:27;;;;;;;15.73;5.13;;;3.50;99.90;;;;;;5035430;28;20290;-78
2021/12/03 09:51:37;;;;;;;13.47;5.70;;;3.60;99.90;;;;;;5034095;28;20574;-79
2021/12/03 09:54:22;;;;;;;14.50;6.17;;;3.60;99.90;;;;;;5036024;28;20188;-79
2021/12/03 09:56:51;;;;;;;15.57;5.73;;;3.70;99.90;;;;;;5037037;28;20192;-79
2021/12/03 10:16:04;;;;;;;16.83;5.60;;;3.90;99.90;;;;;;5040495;28;20192;-79
2021/12/03 10:18:53;;;;;;;17.87;5.40;;;3.90;99.90;;;;;;5039715;28;20168;-79
2021/12/03 10:30:12;;;;;;;18.20;4.70;;;4.10;99.90;;;;;;5039899;28;20179;-79
2021/12/03 10:32:56;;;;;;;22.43;4.73;;;4.10;99.90;;;;;;5038676;28;20709;-79
2021/12/03 10:49:52;;;;;;;12.47;4.23;;;4.20;99.90;;;;;;5009618;28;20188;-79
2021/12/03 11:36:14;;;;;;;10.83;3.33;;;4.30;99.90;;;;;;5039428;28;20544;-78
2021/12/03 11:53:19;;;;;;;8.40;2.97;;;4.30;99.90;;;;;;5021505;28;20177;-78
2021/12/03 11:58:50;;;;;;;12.90;3.10;;;4.40;99.90;;;;;;5035742;28;20256;-78
2021/12/03 12:32:54;;;;;;;10.93;2.53;;;4.70;99.90;;;;;;5038410;28;20183;-78
2021/12/03 13:19:33;;;;;;;7.10;2.70;;;5.10;99.90;;;;;;5033342;28;20206;-77
2021/12/03 14:45:59;;;;;;;4.47;2.20;;;4.90;99.90;;;;;;5040357;28;20611;-79
2021/12/03 14:54:30;;;;;;;4.83;2.63;;;4.90;99.90;;;;;;5040392;28;20219;-79
2021/12/03 14:58:01;;;;;;;8.03;2.30;;;4.80;99.90;;;;;;5038669;28;20200;-80
2021/12/03 15:03:04;;;;;;;4.47;2.50;;;4.60;99.90;;;;;;5041257;28;20160;-80
2021/12/03 15:08:10;;;;;;;4.43;2.33;;;4.50;99.90;;;;;;5039859;28;20248;-80
2021/12/03 15:13:45;;;;;;;5.17;2.80;;;4.50;99.90;;;;;;5038503;28;20710;-80
2021/12/03 15:17:26;;;;;;;5.60;2.50;;;4.40;99.90;;;;;;5038441;28;20195;-80
2021/12/03 15:22:17;;;;;;;4.30;2.20;;;4.30;99.90;;;;;;5038934;28;20215;-80
2021/12/03 15:32:53;;;;;;;6.30;2.50;;;4.20;99.90;;;;;;5039047;28;20215;-80
2021/12/03 16:04:28;;;;;;;3.70;2.30;;;4.20;99.90;;;;;;5057559;28;20172;-80
2021/12/03 16:07:18;;;;;;;3.20;2.53;;;4.20;99.90;;;;;;5056535;28;20189;-80
2021/12/03 16:23:18;;;;;;;4.70;2.20;;;4.30;99.90;;;;;;5030533;28;20239;-80
2021/12/03 16:47:46;;;;;;;3.33;2.30;;;4.40;99.90;;;;;;5013518;28;20188;-77
2021/12/03 16:52:56;;;;;;;5.70;2.50;;;4.40;99.90;;;;;;5013693;28;20199;-77
2021/12/03 16:55:22;;;;;;;3.33;2.53;;;4.40;99.90;;;;;;5013749;28;20173;-77
2021/12/03 16:57:51;;;;;;;5.50;2.87;;;4.40;99.90;;;;;;5013349;28;20251;-77
2021/12/03 17:00:26;;;;;;;6.07;3.10;;;4.40;99.90;;;;;;5013976;28;20176;-77
2021/12/03 17:03:02;;;;;;;4.37;2.83;;;4.40;99.90;;;;;;5012444;28;20164;-77
2021/12/03 17:11:14;;;;;;;4.63;2.67;;;4.30;99.90;;;;;;5013912;28;20211;-77
2021/12/03 17:24:24;;;;;;;5.03;3.13;;;4.20;99.90;;;;;;5012979;28;20191;-77
2021/12/03 17:44:28;;;;;;;4.77;3.03;;;4.20;99.90;;;;;;5013141;28;20181;-77
2021/12/03 17:56:43;;;;;;;7.97;4.20;;;4.20;99.90;;;;;;4993835;28;20635;-77
2021/12/03 17:59:16;;;;;;;9.17;3.90;;;4.10;99.90;;;;;;4992221;28;20158;-77
2021/12/03 18:07:09;;;;;;;10.17;4.50;;;4.10;99.90;;;;;;5014181;28;20284;-75
2021/12/03 18:12:47;;;;;;;6.23;3.30;;;4.10;99.90;;;;;;5013655;28;20185;-77
2021/12/03 18:45:21;;;;;;;6.83;4.20;;;4.10;99.90;;;;;;5004207;28;20196;-76
2021/12/03 18:55:57;;;;;;;5.47;4.07;;;4.10;99.90;;;;;;5016029;28;20173;-76
2021/12/03 18:58:26;;;;;;;7.90;4.57;;;4.10;99.90;;;;;;5014441;28;20681;-75
2021/12/03 19:00:54;;;;;;;5.27;3.93;;;4.10;99.90;;;;;;5014433;28;20256;-75
2021/12/03 19:06:25;;;;;;;6.67;3.97;;;4.10;99.90;;;;;;5015398;28;20183;-75
2021/12/03 19:08:53;;;;;;;7.53;3.90;;;4.10;99.90;;;;;;5014357;28;20165;-74
2021/12/03 19:11:27;;;;;;;5.40;4.03;;;4.10;99.90;;;;;;5015493;28;20254;-75
2021/12/03 19:13:53;;;;;;;5.97;4.10;;;4.10;99.90;;;;;;5015687;28;20189;-75
2021/12/03 19:16:22;;;;;;;6.10;4.90;;;4.00;99.90;;;;;;5015126;28;20191;-75
2021/12/03 19:18:51;;;;;;;7.47;4.57;;;4.10;99.90;;;;;;5015268;28;20192;-75
2021/12/03 19:21:23;;;;;;;8.40;5.13;;;4.10;99.90;;;;;;5015330;28;20188;-74
2021/12/03 19:24:01;;;;;;;7.03;4.70;;;4.10;99.90;;;;;;5014082;28;20165;-75
2021/12/03 19:26:29;;;;;;;8.83;4.67;;;4.10;99.90;;;;;;5014966;28;20204;-74
2021/12/03 19:28:56;;;;;;;8.17;4.97;;;4.10;99.90;;;;;;5015286;28;20184;-74
2021/12/03 19:31:24;;;;;;;9.97;4.60;;;4.00;99.90;;;;;;5015111;28;20303;-74
2021/12/03 19:33:49;;;;;;;6.53;4.10;;;4.00;99.90;;;;;;5015228;28;20220;-74
2021/12/03 19:36:20;;;;;;;6.30;4.70;;;4.10;99.90;;;;;;5014804;28;20267;-74
2021/12/03 19:38:46;;;;;;;7.80;4.00;;;4.00;99.90;;;;;;5014840;28;20201;-76
2021/12/03 19:41:16;;;;;;;9.30;4.50;;;4.10;99.90;;;;;;5014878;28;20166;-75
2021/12/03 19:43:49;;;;;;;6.60;4.20;;;4.00;99.90;;;;;;5013569;28;20183;-76
2021/12/03 19:46:20;;;;;;;6.63;4.40;;;4.10;99.90;;;;;;5012765;28;20196;-77
2021/12/03 19:49:34;;;;;;;4.60;3.73;;;4.10;99.90;;;;;;5014567;28;20220;-76
2021/12/03 19:51:41;;;;;;;8.20;4.30;;;4.10;99.90;;;;;;5011532;28;20276;-76
2021/12/03 19:54:07;;;;;;;8.17;4.57;;;4.10;99.90;;;;;;5014585;28;20189;-77
2021/12/03 19:56:34;;;;;;;10.57;4.13;;;4.10;99.90;;;;;;5014398;28;20179;-76
2021/12/03 19:59:00;;;;;;;6.17;4.50;;;4.10;99.90;;;;;;5014494;28;20173;-76
2021/12/03 20:01:28;;;;;;;7.07;4.27;;;4.10;99.90;;;;;;5013385;28;20227;-76
2021/12/03 20:03:54;;;;;;;6.60;4.07;;;4.10;99.90;;;;;;5014982;28;20199;-77
2021/12/03 20:06:22;;;;;;;4.23;3.63;;;4.10;99.90;;;;;;5014289;28;20177;-78
2021/12/03 20:08:52;;;;;;;6.17;3.83;;;4.10;99.90;;;;;;5013143;28;20208;-77
2021/12/03 20:11:17;;;;;;;4.97;3.63;;;4.10;99.90;;;;;;5014372;28;20173;-77
2021/12/03 20:13:47;;;;;;;4.60;3.73;;;4.10;99.90;;;;;;5014330;28;20259;-77
2021/12/03 20:18:44;;;;;;;4.63;3.77;;;4.10;99.90;;;;;;4994917;28;20197;-76
2021/12/03 20:21:11;;;;;;;8.43;3.53;;;4.10;99.90;;;;;;4994711;28;20170;-77
2021/12/03 20:24:08;;;;;;;5.23;3.40;;;4.10;99.90;;;;;;4994591;28;20173;-76
2021/12/03 20:31:27;;;;;;;4.27;3.33;;;4.10;99.90;;;;;;5014497;28;20177;-76